Huvudsida
METAR-TAF:

METAR-TAF

Flygplatser :

Brescia Ghedi, Italien

latitud: 45-25N, longitud: 010-17E, höjd: 102 m

Aktuellt väderrapport

Denna rapport gjordes för 26 minuter sedan, klockan 03:55 UTC
Vind 4 kt från nordost
Temperatur 21°C
Fuktighet 83%
Tryck 1014 hPa
Sikt 10 km eller mer
Inga moln under 1 500 m eller inga cumulonimbus

METAR: LIPL 190355Z 04004KT CAVOK 21/18 Q1014 RMK FEW FEW150 VIS MIN 9999 WIND THR31 04003KT WIND THR13 03003KT BLU

Tid: 06:21 (04:21 UTC)

Väderprognos

Denna rapport gjordes för 2 timmar och 21 minuter sedan, klockan 02:00 UTC
Prognos gäller från 19 kl. 03 UTC till 19 kl. 12 UTC
Vind 3 kt varierande vindriktning
Sikt 10 km eller mer
Få moln på en höjd av 4000 ft
Sannolikhet 30% :
Temporärt
från 19 kl. 09 UTC till 19 kl. 12 UTC
Sikt: 5000 m
Få moln på en höjd av 2500 ft, Cumulonimbus.
Spridda moln på en höjd av 4000 ft
regnskurar

TAF: LIPL 190200Z 1903/1912 VRB03KT 9999 FEW040 PROB30 TEMPO 1909/1912 5000 SHRA FEW025CB SCT040

Aktuella väderrapporter och prognoser från 4000 flygplatser (METAR- och TAF-rapporter).

De tillgängliga stationerna syns som gula och röda prickar på kartan.

För musen över prickarna för att se namnen på stationerna.

Klicka sedan för att få väderrapporter och prognoser.

För att ändra kartan: Klicka på de gröna knapparna med ett svart kors på för att zooma in; den gröna knappen med ett streck på för att zooma ut; eller på de gröna pilarna för angränsande kartor.


METAR-TAF: